Time;durP1;ratioP1;P1;durP2;ratioP2;P2;SDS_P1;SDS_P2;PMS_P1;PMS_P2;Temp;Humidity;BMP_temperature;BMP_pressure;BME280_temperature;BME280_humidity;BME280_pressure;Samples;Min_cycle;Max_cycle;Signal;HPM_P1;HPM_P2
2023/01/18 00:00:33;;;;;;;14.68;6.47;;;-0.50;99.90;;;;;;4917838;29;20044;-75
2023/01/18 00:02:59;;;;;;;12.75;5.65;;;-0.40;99.90;;;;;;4918449;29;20043;-75
2023/01/18 00:05:24;;;;;;;15.57;6.95;;;-0.40;99.90;;;;;;4933204;29;20131;-75
2023/01/18 00:07:53;;;;;;;10.80;5.90;;;-0.40;99.90;;;;;;4932618;29;21095;-75
2023/01/18 00:10:19;;;;;;;12.55;6.10;;;-0.50;99.90;;;;;;4901615;29;20047;-75
2023/01/18 00:12:48;;;;;;;14.57;6.47;;;-0.40;99.90;;;;;;4917550;29;20052;-75
2023/01/18 00:15:14;;;;;;;13.45;6.60;;;-0.50;99.90;;;;;;4917995;29;20047;-75
2023/01/18 00:17:52;;;;;;;12.07;6.47;;;-0.60;99.90;;;;;;4932864;29;20134;-75
2023/01/18 00:20:22;;;;;;;14.52;6.38;;;-0.60;99.90;;;;;;4920044;29;20052;-75
2023/01/18 00:22:48;;;;;;;11.27;5.85;;;-0.70;99.90;;;;;;4916653;29;20043;-75
2023/01/18 00:25:14;;;;;;;13.95;6.82;;;-0.60;99.90;;;;;;4911006;29;20122;-75
2023/01/18 00:27:44;;;;;;;11.35;5.57;;;-0.60;99.90;;;;;;4914022;29;20095;-75
2023/01/18 00:30:11;;;;;;;13.18;5.72;;;-0.60;99.90;;;;;;4895163;29;20091;-75
2023/01/18 00:32:36;;;;;;;12.13;5.82;;;-0.60;99.90;;;;;;4900877;29;20127;-75
2023/01/18 00:35:06;;;;;;;11.70;6.10;;;-0.70;99.90;;;;;;4952092;28;20367;-75
2023/01/18 00:37:35;;;;;;;13.43;6.05;;;-0.70;99.90;;;;;;4915754;29;20052;-75
2023/01/18 00:40:01;;;;;;;15.60;6.10;;;-0.80;99.90;;;;;;4904188;29;20065;-75
2023/01/18 00:45:11;;;;;;;14.32;6.22;;;-0.70;99.90;;;;;;4930272;29;20826;-75
2023/01/18 00:47:37;;;;;;;11.45;6.03;;;-0.70;99.90;;;;;;4920377;29;20152;-75
2023/01/18 00:50:03;;;;;;;12.02;5.55;;;-0.70;99.90;;;;;;4904709;29;20040;-75
2023/01/18 00:52:29;;;;;;;9.30;5.72;;;-0.70;99.90;;;;;;4922988;29;20044;-75
2023/01/18 00:54:55;;;;;;;11.98;6.53;;;-0.90;99.90;;;;;;4905174;29;20040;-75
2023/01/18 00:57:21;;;;;;;16.45;6.30;;;-0.90;99.90;;;;;;4914265;29;20255;-75
2023/01/18 00:59:46;;;;;;;13.25;5.65;;;-0.80;99.90;;;;;;4903659;29;20114;-75
2023/01/18 01:02:13;;;;;;;13.10;6.10;;;-0.90;99.90;;;;;;4924364;29;20081;-75
2023/01/18 01:07:23;;;;;;;9.90;5.60;;;-0.80;99.90;;;;;;4936034;29;20062;-75
2023/01/18 01:09:49;;;;;;;13.45;5.95;;;-0.90;99.90;;;;;;4911000;29;20455;-75
2023/01/18 01:26:12;;;;;;;20.15;10.25;;;-1.40;99.90;;;;;;4922970;29;20055;-75
2023/01/18 01:28:39;;;;;;;21.20;10.07;;;-1.20;99.90;;;;;;4923083;29;20040;-74
2023/01/18 01:31:06;;;;;;;18.17;9.32;;;-1.20;99.90;;;;;;4919927;29;20666;-75
2023/01/18 01:33:32;;;;;;;24.38;10.05;;;-1.20;99.90;;;;;;4920344;29;20062;-76
2023/01/18 01:35:59;;;;;;;17.20;8.13;;;-1.30;99.90;;;;;;4919738;29;20401;-76
2023/01/18 01:38:25;;;;;;;15.18;7.97;;;-1.30;99.90;;;;;;4919135;29;20054;-76
2023/01/18 01:41:05;;;;;;;22.73;10.27;;;-1.20;99.90;;;;;;4887886;29;20056;-76
2023/01/18 01:43:45;;;;;;;19.00;9.25;;;-1.40;99.90;;;;;;4934790;29;20106;-76
2023/01/18 01:46:24;;;;;;;18.05;8.45;;;-1.30;99.90;;;;;;4927336;29;20047;-76
2023/01/18 01:48:51;;;;;;;14.27;7.57;;;-1.30;99.90;;;;;;4910696;29;20039;-76
2023/01/18 01:51:17;;;;;;;19.20;8.23;;;-1.50;99.90;;;;;;4921303;29;20052;-76
2023/01/18 01:53:45;;;;;;;22.05;9.30;;;-1.30;99.90;;;;;;4931499;29;20048;-76
2023/01/18 01:56:10;;;;;;;16.63;8.47;;;-1.30;99.90;;;;;;4909959;29;20063;-76
2023/01/18 01:58:36;;;;;;;17.15;7.22;;;-1.30;99.90;;;;;;4905469;29;20043;-76
2023/01/18 02:01:02;;;;;;;11.02;5.82;;;-1.20;99.90;;;;;;4921810;29;20043;-77
2023/01/18 02:03:28;;;;;;;14.00;7.00;;;-1.30;99.90;;;;;;4920440;29;20039;-76
2023/01/18 02:06:01;;;;;;;13.57;6.40;;;-1.30;99.90;;;;;;4898894;29;20449;-75
2023/01/18 02:08:27;;;;;;;11.63;6.63;;;-1.30;99.90;;;;;;4895098;29;20521;-76
2023/01/18 02:10:53;;;;;;;14.15;6.22;;;-1.40;99.90;;;;;;4924012;29;20056;-76
2023/01/18 02:13:19;;;;;;;14.68;6.70;;;-1.50;99.90;;;;;;4918710;29;20044;-76
2023/01/18 02:15:48;;;;;;;11.68;6.22;;;-1.30;99.90;;;;;;4920867;29;20452;-76
2023/01/18 02:18:38;;;;;;;15.23;6.80;;;-1.30;99.90;;;;;;4937304;29;20416;-76
2023/01/18 02:21:22;;;;;;;16.02;7.13;;;-1.40;99.90;;;;;;4919230;29;20055;-75
2023/01/18 02:24:29;;;;;;;15.40;7.28;;;-1.50;99.90;;;;;;4936958;29;20040;-76
2023/01/18 02:26:59;;;;;;;14.95;6.53;;;-1.50;99.90;;;;;;4926723;29;20144;-76
2023/01/18 02:29:34;;;;;;;19.05;8.20;;;-1.30;99.90;;;;;;4931848;29;20082;-76
2023/01/18 02:32:25;;;;;;;14.20;7.63;;;-1.40;99.90;;;;;;4920638;29;20070;-76
2023/01/18 02:34:55;;;;;;;16.00;7.03;;;-1.30;99.90;;;;;;4952244;28;20682;-76
2023/01/18 02:37:27;;;;;;;15.10;7.47;;;-1.50;99.90;;;;;;4917371;29;20051;-76
2023/01/18 02:39:58;;;;;;;14.75;6.72;;;-1.30;99.90;;;;;;4952017;28;20052;-76
2023/01/18 02:48:11;;;;;;;15.15;6.75;;;-1.40;99.90;;;;;;4922480;29;20055;-76
2023/01/18 02:50:37;;;;;;;13.63;6.55;;;-1.30;99.90;;;;;;4891834;29;20048;-76
2023/01/18 02:53:03;;;;;;;14.23;6.70;;;-1.40;99.90;;;;;;4903989;29;20047;-76
2023/01/18 02:55:50;;;;;;;11.43;6.68;;;-1.40;99.90;;;;;;4935090;29;20126;-76
2023/01/18 02:58:21;;;;;;;13.23;6.45;;;-1.30;99.90;;;;;;4935148;29;20048;-75
2023/01/18 03:01:02;;;;;;;14.30;6.95;;;-1.40;99.90;;;;;;4932165;29;20044;-76
2023/01/18 03:03:28;;;;;;;13.65;7.93;;;-1.40;99.90;;;;;;4924217;28;20123;-76
2023/01/18 03:05:56;;;;;;;18.50;7.07;;;-1.50;99.90;;;;;;4900315;29;20534;-76
2023/01/18 03:08:35;;;;;;;14.40;6.75;;;-1.50;99.90;;;;;;4913447;29;20453;-76
2023/01/18 03:11:07;;;;;;;16.15;7.38;;;-1.50;99.90;;;;;;4902264;29;20055;-76
2023/01/18 03:13:39;;;;;;;14.07;7.28;;;-1.60;99.90;;;;;;4908828;29;20090;-75
2023/01/18 03:16:11;;;;;;;13.82;7.07;;;-1.60;99.90;;;;;;4928956;29;20058;-76
2023/01/18 03:22:02;;;;;;;15.95;6.45;;;-1.60;99.90;;;;;;4920373;29;20055;-76
2023/01/18 03:24:28;;;;;;;16.33;7.15;;;-1.50;99.90;;;;;;4903231;29;20040;-76
2023/01/18 03:26:54;;;;;;;14.73;7.07;;;-1.60;99.90;;;;;;4917985;29;20574;-75
2023/01/18 03:35:08;;;;;;;14.82;6.95;;;-1.70;99.90;;;;;;4909239;29;20040;-75
2023/01/18 03:37:39;;;;;;;11.70;6.20;;;-1.70;99.90;;;;;;4907912;29;20059;-76
2023/01/18 03:40:08;;;;;;;13.55;6.90;;;-1.70;99.90;;;;;;4916718;29;20059;-76
2023/01/18 03:42:56;;;;;;;12.50;6.50;;;-1.70;99.90;;;;;;4926783;29;20064;-76
2023/01/18 03:45:38;;;;;;;15.48;6.53;;;-1.70;99.90;;;;;;4928737;29;20044;-76
2023/01/18 03:48:04;;;;;;;13.38;6.13;;;-1.70;99.90;;;;;;4922960;29;20084;-75
2023/01/18 03:50:49;;;;;;;13.63;6.25;;;-1.70;99.90;;;;;;4900309;29;20040;-76
2023/01/18 03:53:20;;;;;;;14.40;6.03;;;-1.60;99.90;;;;;;4943741;28;20365;-75
2023/01/18 03:55:49;;;;;;;12.60;6.70;;;-1.70;99.90;;;;;;4919753;29;20603;-76
2023/01/18 03:58:18;;;;;;;17.65;6.18;;;-1.70;99.90;;;;;;4900674;29;20439;-76
2023/01/18 04:00:43;;;;;;;17.92;6.82;;;-1.60;99.90;;;;;;4919849;29;20130;-76
2023/01/18 04:03:09;;;;;;;13.25;7.60;;;-1.70;99.90;;;;;;4914420;29;20132;-76
2023/01/18 04:05:35;;;;;;;12.90;7.40;;;-1.70;99.90;;;;;;4919061;29;20472;-76
2023/01/18 04:08:01;;;;;;;14.07;6.28;;;-1.60;99.90;;;;;;4913040;29;20074;-76
2023/01/18 04:10:26;;;;;;;14.82;6.57;;;-1.50;99.90;;;;;;4919917;29;20134;-76
2023/01/18 04:12:52;;;;;;;14.13;6.68;;;-1.70;99.90;;;;;;4922849;29;20047;-76
2023/01/18 04:15:19;;;;;;;14.43;6.78;;;-1.70;99.90;;;;;;4904408;29;20127;-76
2023/01/18 04:17:44;;;;;;;14.88;7.22;;;-1.70;99.90;;;;;;4920520;29;20044;-76
2023/01/18 04:20:10;;;;;;;12.50;6.30;;;-1.60;99.90;;;;;;4923440;29;20074;-76
2023/01/18 04:22:36;;;;;;;13.75;6.90;;;-1.50;99.90;;;;;;4926423;29;20472;-76
2023/01/18 04:25:02;;;;;;;12.25;6.45;;;-1.50;99.90;;;;;;4904409;29;20472;-76
2023/01/18 04:27:28;;;;;;;13.25;6.55;;;-1.60;99.90;;;;;;4906689;29;20040;-76
2023/01/18 04:29:54;;;;;;;10.65;5.88;;;-1.50;99.90;;;;;;4923084;29;20362;-76
2023/01/18 04:32:20;;;;;;;15.93;6.57;;;-1.70;99.90;;;;;;4932124;29;20059;-76
2023/01/18 04:34:45;;;;;;;16.05;6.55;;;-1.70;99.90;;;;;;4913103;29;20051;-76
2023/01/18 04:37:11;;;;;;;9.82;5.20;;;-1.60;99.90;;;;;;4939331;29;20078;-76
2023/01/18 04:39:37;;;;;;;12.02;6.22;;;-1.60;99.90;;;;;;4922267;29;20086;-76
2023/01/18 04:42:03;;;;;;;11.82;5.75;;;-1.60;99.90;;;;;;4938282;29;20071;-76
2023/01/18 04:44:29;;;;;;;11.48;5.47;;;-1.50;99.90;;;;;;4923103;29;20039;-76
2023/01/18 04:46:55;;;;;;;12.63;7.18;;;-1.40;99.90;;;;;;4921477;29;20111;-76
2023/01/18 04:49:20;;;;;;;12.00;5.95;;;-1.50;99.90;;;;;;4922193;29;20048;-76
2023/01/18 04:51:46;;;;;;;15.90;5.82;;;-1.50;99.90;;;;;;4937454;29;20051;-76
2023/01/18 04:54:13;;;;;;;13.02;6.10;;;-1.60;99.90;;;;;;4921622;29;20044;-76
2023/01/18 04:56:39;;;;;;;12.13;5.93;;;-1.50;99.90;;;;;;4906227;29;20130;-76
2023/01/18 04:59:05;;;;;;;10.57;5.30;;;-1.50;99.90;;;;;;4906058;29;20126;-76
2023/01/18 05:01:31;;;;;;;8.75;4.85;;;-1.60;99.90;;;;;;4937837;29;20071;-76
2023/01/18 05:03:57;;;;;;;13.77;6.10;;;-1.50;99.90;;;;;;4921644;29;20059;-76
2023/01/18 05:06:23;;;;;;;11.80;5.70;;;-1.50;99.90;;;;;;4938475;29;20047;-76
2023/01/18 05:08:51;;;;;;;11.45;7.05;;;-1.50;99.90;;;;;;4926498;29;20052;-76
2023/01/18 05:11:19;;;;;;;10.18;5.45;;;-1.60;99.90;;;;;;4931262;29;20090;-76
2023/01/18 05:13:45;;;;;;;14.10;6.32;;;-1.60;99.90;;;;;;4914795;29;20044;-76
2023/01/18 05:16:13;;;;;;;12.52;4.90;;;-1.60;99.90;;;;;;4894341;29;20052;-76
2023/01/18 05:18:39;;;;;;;;;;;-1.50;99.90;;;;;;4934858;29;20111;-76
2023/01/18 05:21:05;;;;;;;12.25;5.35;;;-1.50;99.90;;;;;;4938407;29;20053;-75
2023/01/18 05:23:30;;;;;;;12.82;6.05;;;-1.50;99.90;;;;;;4920834;29;20130;-76
2023/01/18 05:25:57;;;;;;;11.05;5.63;;;-1.60;99.90;;;;;;4921041;29;20066;-76
2023/01/18 05:28:23;;;;;;;11.10;6.22;;;-1.70;99.90;;;;;;4902667;29;20044;-76
2023/01/18 05:30:50;;;;;;;13.98;6.55;;;-1.60;99.90;;;;;;4912884;29;20095;-76
2023/01/18 05:33:19;;;;;;;12.63;6.03;;;-1.60;99.90;;;;;;4895121;29;20052;-76
2023/01/18 05:35:52;;;;;;;10.63;5.40;;;-1.60;99.90;;;;;;4928560;29;20072;-76
2023/01/18 05:38:18;;;;;;;12.52;6.53;;;-1.50;99.90;;;;;;4907271;29;20047;-76
2023/01/18 05:40:47;;;;;;;11.20;6.00;;;-1.50;99.90;;;;;;4936564;29;20080;-75
2023/01/18 05:43:13;;;;;;;10.95;5.55;;;-1.40;99.90;;;;;;4932511;29;20044;-75
2023/01/18 05:45:40;;;;;;;9.10;5.35;;;-1.40;99.90;;;;;;4913454;29;20051;-76
2023/01/18 05:48:06;;;;;;;14.48;6.35;;;-1.30;99.90;;;;;;4936683;29;20131;-76
2023/01/18 05:50:31;;;;;;;10.98;6.20;;;-1.40;99.90;;;;;;4921112;29;20138;-76
2023/01/18 05:52:57;;;;;;;11.73;5.72;;;-1.50;99.90;;;;;;4920970;29;20048;-76
2023/01/18 05:55:24;;;;;;;13.23;6.43;;;-1.50;99.90;;;;;;4921237;29;20047;-76
2023/01/18 05:57:50;;;;;;;13.45;6.25;;;-1.50;99.90;;;;;;4921323;29;20086;-76
2023/01/18 06:00:16;;;;;;;14.05;6.07;;;-1.60;99.90;;;;;;4920906;29;20044;-76
2023/01/18 06:02:41;;;;;;;15.57;7.38;;;-1.60;99.90;;;;;;4920858;29;20167;-76
2023/01/18 06:05:07;;;;;;;13.43;6.03;;;-1.50;99.90;;;;;;4935918;29;20099;-76
2023/01/18 06:07:33;;;;;;;11.18;5.72;;;-1.60;99.90;;;;;;4904629;29;20062;-76
2023/01/18 06:09:59;;;;;;;12.40;5.28;;;-1.50;99.90;;;;;;4920158;29;20376;-76
2023/01/18 06:12:24;;;;;;;15.13;6.85;;;-1.70;99.90;;;;;;4910979;29;20130;-76
2023/01/18 06:14:50;;;;;;;11.50;5.53;;;-1.70;99.90;;;;;;4903602;29;20052;-76
2023/01/18 06:17:16;;;;;;;11.70;6.05;;;-1.60;99.90;;;;;;4904685;29;20788;-77
2023/01/18 06:19:42;;;;;;;12.57;6.55;;;-1.70;99.90;;;;;;4899993;29;20043;-76
2023/01/18 06:22:07;;;;;;;12.07;6.50;;;-1.60;99.90;;;;;;4919206;29;20062;-76
2023/01/18 06:24:33;;;;;;;12.73;7.10;;;-1.60;99.90;;;;;;4904376;29;20400;-76
2023/01/18 06:26:59;;;;;;;20.77;8.40;;;-1.70;99.90;;;;;;4921040;29;20059;-76
2023/01/18 06:29:25;;;;;;;17.05;7.53;;;-1.70;99.90;;;;;;4899257;29;20421;-76
2023/01/18 06:31:51;;;;;;;10.23;5.65;;;-1.70;99.90;;;;;;4920849;29;20056;-76
2023/01/18 06:34:17;;;;;;;12.32;6.40;;;-1.70;99.90;;;;;;4895414;29;20362;-76
2023/01/18 06:36:44;;;;;;;15.48;7.70;;;-1.60;99.90;;;;;;4920535;29;20044;-76
2023/01/18 06:39:10;;;;;;;19.38;7.88;;;-1.90;99.90;;;;;;4918593;29;20058;-76
2023/01/18 06:41:35;;;;;;;12.50;6.70;;;-2.00;99.90;;;;;;4896822;29;20051;-76
2023/01/18 06:44:02;;;;;;;12.82;6.03;;;-1.90;99.90;;;;;;4923500;29;20075;-76
2023/01/18 06:46:27;;;;;;;12.48;6.38;;;-1.70;99.90;;;;;;4920368;29;20473;-76
2023/01/18 06:48:53;;;;;;;17.60;8.70;;;-1.60;99.90;;;;;;4914683;29;20040;-76
2023/01/18 06:51:20;;;;;;;14.05;7.40;;;-1.70;99.90;;;;;;4923169;29;20043;-77
2023/01/18 06:53:47;;;;;;;17.80;7.80;;;-1.70;99.90;;;;;;4898167;29;20047;-76
2023/01/18 06:56:13;;;;;;;11.00;6.20;;;-1.70;99.90;;;;;;4919046;29;20050;-76
2023/01/18 06:58:39;;;;;;;12.95;6.10;;;-1.80;99.90;;;;;;4913133;29;20048;-76
2023/01/18 07:01:05;;;;;;;15.77;7.07;;;-1.70;99.90;;;;;;4918882;29;20049;-76
2023/01/18 07:03:31;;;;;;;14.25;7.40;;;-1.80;99.90;;;;;;4925567;29;20453;-76
2023/01/18 07:05:57;;;;;;;12.00;6.22;;;-1.70;99.90;;;;;;4917514;29;20048;-76
2023/01/18 07:08:23;;;;;;;13.27;7.22;;;-1.70;99.90;;;;;;4934907;28;20047;-76
2023/01/18 07:10:51;;;;;;;15.23;7.80;;;-1.70;99.90;;;;;;4918993;29;20048;-76
2023/01/18 07:13:17;;;;;;;14.07;6.38;;;-1.70;99.90;;;;;;4916809;29;20072;-75
2023/01/18 07:15:43;;;;;;;14.43;6.72;;;-1.80;99.90;;;;;;4910271;29;20130;-76
2023/01/18 07:18:09;;;;;;;16.10;7.32;;;-1.70;99.90;;;;;;4903799;29;20059;-75
2023/01/18 07:20:35;;;;;;;13.15;6.75;;;-1.80;99.90;;;;;;4914313;29;20533;-75
2023/01/18 07:23:01;;;;;;;15.82;7.47;;;-1.70;99.90;;;;;;4901910;29;20058;-75
2023/01/18 07:25:28;;;;;;;20.92;8.88;;;-1.60;99.90;;;;;;4917402;29;20131;-75
2023/01/18 07:27:56;;;;;;;16.60;7.82;;;-1.40;99.90;;;;;;4932722;29;20043;-74
2023/01/18 07:30:22;;;;;;;13.70;7.47;;;-1.50;99.90;;;;;;4913740;29;20093;-75
2023/01/18 07:32:49;;;;;;;13.85;6.88;;;-1.50;99.90;;;;;;4918091;29;20075;-75
2023/01/18 07:35:18;;;;;;;17.42;7.00;;;-1.70;99.90;;;;;;4919261;29;20058;-74
2023/01/18 07:37:51;;;;;;;22.48;7.60;;;-1.70;99.90;;;;;;4918237;29;20126;-76
2023/01/18 07:40:20;;;;;;;12.45;6.28;;;-1.70;99.90;;;;;;4912622;29;20059;-74
2023/01/18 07:42:46;;;;;;;;;;;-1.80;99.90;;;;;;4906586;29;20499;-74
2023/01/18 07:45:12;;;;;;;12.40;5.75;;;-1.70;99.90;;;;;;4937619;29;19919;-74
2023/01/18 07:47:41;;;;;;;16.50;7.60;;;-1.60;99.90;;;;;;4926625;29;20429;-74
2023/01/18 07:50:08;;;;;;;17.38;8.00;;;-1.60;99.90;;;;;;4908071;29;20417;-74
2023/01/18 07:52:34;;;;;;;15.95;7.32;;;-1.70;99.90;;;;;;4919755;29;20056;-74
2023/01/18 07:55:00;;;;;;;17.10;7.55;;;-1.80;99.90;;;;;;4911696;29;20040;-74
2023/01/18 07:57:25;;;;;;;16.50;7.07;;;-1.60;99.90;;;;;;4906123;29;20078;-74
2023/01/18 07:59:51;;;;;;;13.25;6.45;;;-1.70;99.90;;;;;;4913019;29;20056;-76
2023/01/18 08:02:17;;;;;;;10.85;6.93;;;-1.70;99.90;;;;;;4918371;29;20338;-75
2023/01/18 08:04:47;;;;;;;15.60;6.68;;;-1.70;99.90;;;;;;4902241;29;20514;-75
2023/01/18 08:07:13;;;;;;;14.05;6.28;;;-1.70;99.90;;;;;;4912298;29;20044;-75
2023/01/18 08:09:38;;;;;;;13.32;7.43;;;-1.60;99.90;;;;;;4918818;29;20054;-76
2023/01/18 08:12:06;;;;;;;13.32;6.72;;;-1.60;99.90;;;;;;4916536;29;20448;-76
2023/01/18 08:14:32;;;;;;;15.38;8.35;;;-1.60;99.90;;;;;;4917860;29;20740;-76
2023/01/18 08:16:58;;;;;;;17.15;7.75;;;-1.60;99.90;;;;;;4933483;29;20496;-76
2023/01/18 08:19:24;;;;;;;19.73;8.45;;;-1.50;99.90;;;;;;4934100;29;20039;-76
2023/01/18 08:21:49;;;;;;;16.75;8.05;;;-1.50;99.90;;;;;;4918128;29;20524;-76
2023/01/18 08:24:15;;;;;;;13.82;6.82;;;-1.50;99.90;;;;;;4916419;29;20098;-76
2023/01/18 08:26:41;;;;;;;17.02;7.20;;;-1.50;99.90;;;;;;4911237;29;20098;-75
2023/01/18 08:29:07;;;;;;;15.60;7.45;;;-1.60;99.90;;;;;;4901637;29;20484;-76
2023/01/18 08:31:32;;;;;;;12.68;6.63;;;-1.50;99.90;;;;;;4912018;29;20055;-76
2023/01/18 08:33:58;;;;;;;11.90;6.85;;;-1.30;99.90;;;;;;4916520;29;20362;-75
2023/01/18 08:36:24;;;;;;;15.82;7.57;;;-1.30;99.90;;;;;;4917676;29;20540;-75
2023/01/18 08:38:55;;;;;;;16.13;7.82;;;-1.40;99.90;;;;;;4933022;29;20134;-75
2023/01/18 08:41:26;;;;;;;18.42;8.68;;;-1.30;99.90;;;;;;4918038;29;20480;-75
2023/01/18 08:43:53;;;;;;;20.08;8.38;;;-1.30;99.90;;;;;;4918260;29;20476;-76
2023/01/18 08:46:19;;;;;;;17.73;8.50;;;-1.40;99.90;;;;;;4908393;29;20048;-76
2023/01/18 08:48:54;;;;;;;23.33;9.50;;;-1.40;99.90;;;;;;4917120;29;20138;-76
2023/01/18 08:51:21;;;;;;;22.95;10.15;;;-1.10;99.90;;;;;;4906065;29;20428;-76
2023/01/18 08:53:51;;;;;;;17.40;8.13;;;-1.10;99.90;;;;;;4906493;29;20076;-76
2023/01/18 08:56:17;;;;;;;15.63;7.45;;;-1.00;99.90;;;;;;4916218;29;20279;-75
2023/01/18 08:58:43;;;;;;;17.30;7.70;;;-1.00;99.90;;;;;;4922037;29;20051;-75
2023/01/18 09:01:09;;;;;;;15.38;7.65;;;-0.90;99.90;;;;;;4922707;29;20044;-75
2023/01/18 09:03:35;;;;;;;19.83;8.15;;;-0.90;99.90;;;;;;4901469;29;20052;-75
2023/01/18 09:06:02;;;;;;;22.10;8.60;;;-0.90;99.90;;;;;;4905540;29;20106;-76
2023/01/18 09:08:28;;;;;;;12.30;6.43;;;-0.90;99.90;;;;;;4914532;29;20780;-76
2023/01/18 09:10:54;;;;;;;18.05;7.57;;;-1.00;99.90;;;;;;4914605;29;20051;-76
2023/01/18 09:13:20;;;;;;;13.82;6.05;;;-0.80;99.90;;;;;;4920887;29;20118;-76
2023/01/18 09:15:45;;;;;;;18.13;7.20;;;-1.00;99.90;;;;;;4925768;29;20059;-76
2023/01/18 09:18:12;;;;;;;24.20;8.90;;;-1.10;99.90;;;;;;4899964;29;20112;-76
2023/01/18 09:20:38;;;;;;;19.83;7.32;;;-1.00;99.90;;;;;;4904759;29;20047;-76
2023/01/18 09:23:07;;;;;;;16.77;7.00;;;-1.10;99.90;;;;;;4921170;29;20111;-74
2023/01/18 09:25:36;;;;;;;17.38;7.57;;;-1.00;99.90;;;;;;4907908;29;20079;-74
2023/01/18 09:28:03;;;;;;;16.40;7.72;;;-1.10;99.90;;;;;;4920405;29;20460;-74
2023/01/18 09:30:29;;;;;;;19.00;7.75;;;-1.00;99.90;;;;;;4920080;29;20071;-74
2023/01/18 09:32:58;;;;;;;15.63;7.70;;;-0.90;99.90;;;;;;4920234;29;20047;-74
2023/01/18 09:35:23;;;;;;;21.75;7.30;;;-1.00;99.90;;;;;;4919415;29;20472;-74
2023/01/18 09:37:49;;;;;;;19.92;8.05;;;-1.00;99.90;;;;;;4934633;29;20079;-74
2023/01/18 09:40:19;;;;;;;21.85;7.75;;;-1.00;99.90;;;;;;4935185;29;20613;-74
2023/01/18 09:42:50;;;;;;;14.45;7.60;;;-1.00;99.90;;;;;;4901167;29;20051;-74
2023/01/18 09:45:34;;;;;;;20.92;8.15;;;-0.80;99.90;;;;;;4924272;29;20039;-74
2023/01/18 09:48:03;;;;;;;23.45;9.23;;;-1.00;99.90;;;;;;4936408;29;20052;-74
2023/01/18 09:50:28;;;;;;;17.48;7.90;;;-1.10;99.90;;;;;;4921724;29;20040;-74
2023/01/18 09:53:34;;;;;;;17.27;8.50;;;-0.80;99.90;;;;;;4920707;29;20054;-74
2023/01/18 09:56:06;;;;;;;25.02;7.75;;;-0.70;99.90;;;;;;4903714;29;20058;-74
2023/01/18 09:58:44;;;;;;;21.02;7.57;;;-0.60;99.90;;;;;;4922364;29;20048;-74
2023/01/18 10:01:13;;;;;;;16.50;6.97;;;-0.60;99.90;;;;;;4923867;29;20054;-74
2023/01/18 10:03:48;;;;;;;15.98;7.20;;;-0.70;99.90;;;;;;4921766;29;20075;-74
2023/01/18 10:06:26;;;;;;;12.57;6.85;;;-0.60;99.90;;;;;;4909348;29;20052;-74
2023/01/18 10:09:04;;;;;;;20.63;7.13;;;-0.70;99.90;;;;;;4933001;29;20130;-74
2023/01/18 10:11:32;;;;;;;17.65;8.43;;;-0.60;99.90;;;;;;4921933;29;20388;-74
2023/01/18 10:14:13;;;;;;;15.77;8.23;;;-0.60;99.90;;;;;;4932085;29;20051;-74
2023/01/18 10:16:39;;;;;;;22.35;9.13;;;-0.40;99.90;;;;;;4929241;29;20051;-74
2023/01/18 10:19:19;;;;;;;15.77;8.48;;;-0.40;99.90;;;;;;4916400;29;20063;-74
2023/01/18 10:21:51;;;;;;;18.13;8.65;;;-0.30;99.90;;;;;;4921669;29;20556;-73
2023/01/18 10:24:26;;;;;;;17.75;8.35;;;-0.20;99.90;;;;;;4918771;29;20787;-73
2023/01/18 10:26:57;;;;;;;18.80;8.85;;;-0.10;99.90;;;;;;4926286;29;20059;-73
2023/01/18 10:29:41;;;;;;;20.70;7.80;;;0.10;99.90;;;;;;4918525;29;20168;-73
2023/01/18 10:32:11;;;;;;;18.48;8.15;;;0.20;99.90;;;;;;4933279;29;20051;-73
2023/01/18 10:34:41;;;;;;;18.38;8.75;;;0.20;99.90;;;;;;4895491;29;20054;-73
2023/01/18 10:37:34;;;;;;;20.70;8.23;;;0.20;99.90;;;;;;4909379;29;20039;-73
2023/01/18 10:40:08;;;;;;;17.65;7.25;;;0.40;99.90;;;;;;4893151;29;20584;-72
2023/01/18 10:42:44;;;;;;;14.10;7.53;;;0.50;99.90;;;;;;4910602;29;20430;-73
2023/01/18 10:45:20;;;;;;;21.70;9.10;;;0.60;99.90;;;;;;4929368;29;20075;-72
2023/01/18 10:47:49;;;;;;;17.58;8.85;;;0.60;99.90;;;;;;4934688;29;20043;-73
2023/01/18 10:50:18;;;;;;;17.25;9.13;;;0.80;99.90;;;;;;4863496;29;20602;-73
2023/01/18 10:52:44;;;;;;;23.48;9.85;;;1.00;99.90;;;;;;4917841;29;20469;-73
2023/01/18 10:55:14;;;;;;;18.38;8.63;;;1.00;99.90;;;;;;4918803;29;20130;-73
2023/01/18 10:57:42;;;;;;;15.02;8.10;;;0.80;99.90;;;;;;4913524;29;20464;-73
2023/01/18 11:00:22;;;;;;;19.98;8.05;;;0.90;99.90;;;;;;4918085;29;20123;-73
2023/01/18 11:02:51;;;;;;;21.10;8.38;;;1.20;99.90;;;;;;4918035;29;20054;-73
2023/01/18 11:05:27;;;;;;;22.05;10.50;;;1.50;99.90;;;;;;4914835;29;20044;-72
2023/01/18 11:08:13;;;;;;;27.35;12.73;;;1.50;99.90;;;;;;4925264;29;20138;-72
2023/01/18 11:10:40;;;;;;;24.33;10.80;;;2.10;99.90;;;;;;4941684;28;20043;-72
2023/01/18 11:13:31;;;;;;;18.90;10.07;;;2.50;99.90;;;;;;4909482;29;20051;-73
2023/01/18 11:16:14;;;;;;;17.92;8.45;;;2.70;99.90;;;;;;4930516;29;20131;-73
2023/01/18 11:19:00;;;;;;;17.52;7.90;;;3.70;99.90;;;;;;4943038;29;20075;-73
2023/01/18 11:21:32;;;;;;;15.18;7.45;;;5.00;99.90;;;;;;4917372;29;20118;-74
2023/01/18 11:23:59;;;;;;;15.35;7.68;;;5.30;99.90;;;;;;4917730;29;20094;-74
2023/01/18 11:26:27;;;;;;;12.77;6.55;;;5.70;99.90;;;;;;4917639;29;20130;-74
2023/01/18 11:29:03;;;;;;;13.70;7.07;;;6.50;99.90;;;;;;4902116;29;20098;-75
2023/01/18 11:31:44;;;;;;;11.52;6.45;;;7.00;99.90;;;;;;4947385;29;20055;-75
2023/01/18 11:34:23;;;;;;;11.40;6.40;;;7.00;95.70;;;;;;4918557;29;20102;-75
2023/01/18 11:36:49;;;;;;;13.63;6.43;;;6.90;97.10;;;;;;4910518;29;20052;-76
2023/01/18 11:39:33;;;;;;;14.50;6.25;;;7.70;93.80;;;;;;4917710;29;20047;-74
2023/01/18 11:42:12;;;;;;;12.00;6.07;;;8.10;93.00;;;;;;4913967;29;20051;-74
2023/01/18 11:44:50;;;;;;;12.48;6.22;;;9.20;85.10;;;;;;4930113;29;20040;-74
2023/01/18 11:47:27;;;;;;;11.75;6.80;;;7.30;82.90;;;;;;4933899;29;20044;-75
2023/01/18 11:50:02;;;;;;;11.57;5.50;;;8.30;82.70;;;;;;4913525;29;20051;-75
2023/01/18 11:52:52;;;;;;;12.32;5.85;;;9.10;77.60;;;;;;4947029;29;20131;-75
2023/01/18 11:55:39;;;;;;;10.70;6.05;;;7.90;85.70;;;;;;4908924;29;20148;-75
2023/01/18 11:58:23;;;;;;;12.90;6.38;;;7.40;89.20;;;;;;4926412;29;20536;-75
2023/01/18 12:01:10;;;;;;;11.95;6.07;;;7.60;92.70;;;;;;4901770;29;20112;-75
2023/01/18 12:04:05;;;;;;;13.32;6.45;;;8.70;88.00;;;;;;4916098;29;20040;-75
2023/01/18 12:06:48;;;;;;;10.00;5.70;;;9.70;79.00;;;;;;4912640;29;20119;-74
2023/01/18 12:09:39;;;;;;;12.32;6.38;;;10.80;68.80;;;;;;4929550;29;20047;-75
2023/01/18 12:12:29;;;;;;;10.45;5.50;;;10.60;65.10;;;;;;4910144;29;20096;-76
2023/01/18 12:15:05;;;;;;;12.10;5.97;;;10.30;63.10;;;;;;4930715;29;20548;-76
2023/01/18 12:17:41;;;;;;;10.15;5.90;;;9.20;65.30;;;;;;4933927;29;20060;-76
2023/01/18 12:20:15;;;;;;;10.73;5.95;;;9.00;69.30;;;;;;4934561;29;20048;-76
2023/01/18 12:23:13;;;;;;;11.45;6.20;;;7.90;72.40;;;;;;4917229;29;20043;-74
2023/01/18 12:25:38;;;;;;;;;;;7.00;83.20;;;;;;4907972;29;20040;-74
2023/01/18 12:28:27;;;;;;;11.75;6.20;;;6.20;89.60;;;;;;4935012;29;20268;-73
2023/01/18 12:31:30;;;;;;;11.45;5.82;;;6.30;90.80;;;;;;4921223;29;20055;-74
2023/01/18 12:34:14;;;;;;;11.27;6.45;;;6.30;91.40;;;;;;4878320;29;20059;-73
2023/01/18 12:36:51;;;;;;;8.18;5.55;;;5.70;92.20;;;;;;4905013;29;20409;-73
2023/01/18 12:39:48;;;;;;;13.00;6.45;;;5.30;93.20;;;;;;4919712;29;20489;-73
2023/01/18 12:42:44;;;;;;;11.40;5.68;;;5.70;94.30;;;;;;4906275;29;20051;-74
2023/01/18 12:45:27;;;;;;;11.75;6.28;;;6.00;93.90;;;;;;4906598;29;20174;-75
2023/01/18 12:48:19;;;;;;;11.50;6.70;;;6.50;91.70;;;;;;4937197;29;20048;-75
2023/01/18 12:50:47;;;;;;;14.35;7.00;;;7.60;86.80;;;;;;4921206;29;20127;-75
2023/01/18 12:53:16;;;;;;;10.65;6.38;;;7.80;84.80;;;;;;4905222;29;20373;-76
2023/01/18 12:55:44;;;;;;;12.75;6.85;;;7.80;82.20;;;;;;4920731;29;20083;-74
2023/01/18 12:58:15;;;;;;;11.02;6.53;;;7.10;85.20;;;;;;4920895;29;20040;-75
2023/01/18 13:00:47;;;;;;;13.20;7.20;;;6.10;91.70;;;;;;4893524;29;20718;-75
2023/01/18 13:03:17;;;;;;;12.77;6.55;;;5.30;95.60;;;;;;4906272;29;20055;-75
2023/01/18 13:05:57;;;;;;;13.77;7.30;;;5.20;97.10;;;;;;4921949;29;20142;-75
2023/01/18 13:08:40;;;;;;;15.48;6.85;;;5.20;98.20;;;;;;4919841;29;20095;-75
2023/01/18 13:11:21;;;;;;;13.65;6.93;;;5.40;98.00;;;;;;4929328;29;20114;-75
2023/01/18 13:13:48;;;;;;;11.82;7.05;;;5.40;97.60;;;;;;4907501;29;20044;-76
2023/01/18 13:16:34;;;;;;;12.88;7.05;;;4.60;99.70;;;;;;4920984;29;20044;-75
2023/01/18 13:19:05;;;;;;;11.00;6.65;;;5.10;98.90;;;;;;4923026;29;20082;-77
2023/01/18 13:21:43;;;;;;;12.90;6.85;;;5.50;98.20;;;;;;4921208;29;20044;-77
2023/01/18 13:24:35;;;;;;;16.10;8.38;;;5.30;98.60;;;;;;4938332;29;20427;-77
2023/01/18 13:27:11;;;;;;;12.55;8.38;;;5.70;97.60;;;;;;4937299;29;20914;-77
2023/01/18 13:29:37;;;;;;;12.55;7.32;;;5.20;97.80;;;;;;4919448;29;20058;-75
2023/01/18 13:32:03;;;;;;;13.48;7.18;;;5.30;99.20;;;;;;4905365;29;20047;-74